createdAt,value
2019-02-21T00:01:01.035Z,52.19
2019-02-21T00:05:07.753Z,51.49
2019-02-21T00:09:15.546Z,55.02
2019-02-21T00:13:20.894Z,52.95
2019-02-21T00:17:26.598Z,52.09
2019-02-21T00:21:32.290Z,52.64
2019-02-21T00:25:37.999Z,52.12
2019-02-21T00:29:43.704Z,52.25
2019-02-21T00:33:49.384Z,52.08
2019-02-21T00:37:55.087Z,52.31
2019-02-21T00:42:02.527Z,52.70
2019-02-21T00:46:08.229Z,53.33
2019-02-21T00:50:13.916Z,55.76
2019-02-21T00:54:19.597Z,54.47
2019-02-21T00:58:25.523Z,53.00
2019-02-21T01:02:31.223Z,54.95
2019-02-21T01:06:36.922Z,52.39
2019-02-21T01:10:42.596Z,53.65
2019-02-21T01:14:48.303Z,56.46
2019-02-21T01:18:54.094Z,53.44
2019-02-21T01:23:01.604Z,53.17
2019-02-21T01:27:07.514Z,53.13
2019-02-21T01:31:14.258Z,52.15
2019-02-21T01:35:19.955Z,54.38
2019-02-21T01:39:25.642Z,54.02
2019-02-21T01:43:31.347Z,53.45
2019-02-21T01:47:37.049Z,53.80
2019-02-21T01:51:42.729Z,53.19
2019-02-21T01:55:48.446Z,53.70
2019-02-21T01:59:54.279Z,53.78
2019-02-21T02:03:59.983Z,53.64
2019-02-21T02:08:05.794Z,54.08
2019-02-21T02:12:11.491Z,55.20
2019-02-21T02:16:17.222Z,54.52
2019-02-21T02:20:22.993Z,54.26
2019-02-21T02:24:28.688Z,54.67
2019-02-21T02:28:34.382Z,53.57
2019-02-21T02:32:40.089Z,54.11
2019-02-21T02:36:45.856Z,54.11
2019-02-21T02:40:51.534Z,54.06
2019-02-21T02:44:57.215Z,53.86
2019-02-21T02:49:02.911Z,53.37
2019-02-21T02:53:08.645Z,53.88
2019-02-21T02:57:14.340Z,54.29
2019-02-21T03:01:20.034Z,54.42
2019-02-21T03:05:25.719Z,55.14
2019-02-21T03:09:31.429Z,52.90
2019-02-21T03:13:37.099Z,55.07
2019-02-21T03:17:43.864Z,55.77
2019-02-21T03:21:49.549Z,57.42
2019-02-21T03:25:55.342Z,55.16
2019-02-21T03:30:02.047Z,53.91
2019-02-21T03:34:07.740Z,54.51
2019-02-21T03:38:13.435Z,53.73
2019-02-21T03:42:19.177Z,53.92
2019-02-21T03:46:24.897Z,52.49
2019-02-21T03:50:30.572Z,53.54
2019-02-21T03:54:36.516Z,55.14
2019-02-21T03:58:42.431Z,55.09
2019-02-21T04:02:48.277Z,54.79
2019-02-21T04:06:55.280Z,54.32
2019-02-21T04:11:00.940Z,56.17
2019-02-21T04:15:11.857Z,53.88
2019-02-21T04:19:17.534Z,53.14
2019-02-21T04:23:23.226Z,60.11
2019-02-21T04:27:28.911Z,54.12
2019-02-21T04:31:34.587Z,53.53
2019-02-21T04:35:40.279Z,53.18
2019-02-21T04:39:45.971Z,53.31
2019-02-21T04:43:51.813Z,55.31
2019-02-21T04:47:57.546Z,54.50
2019-02-21T04:52:03.227Z,53.43
2019-02-21T04:56:08.923Z,54.34
2019-02-21T05:00:14.677Z,55.56
2019-02-21T05:04:20.366Z,57.98
2019-02-21T05:08:26.061Z,54.06
2019-02-21T05:12:31.750Z,53.60
2019-02-21T05:16:37.432Z,56.37
2019-02-21T05:20:43.131Z,55.79
2019-02-21T05:24:49.004Z,55.61
2019-02-21T05:28:54.805Z,54.83
2019-02-21T05:33:14.229Z,53.17
2019-02-21T05:37:36.546Z,57.77
2019-02-21T05:41:43.979Z,54.19
2019-02-21T05:45:55.426Z,53.78
2019-02-21T05:50:05.409Z,53.69
2019-02-21T05:54:12.941Z,54.20
2019-02-21T05:58:23.509Z,55.55
2019-02-21T06:02:53.514Z,54.96
2019-02-21T06:06:57.738Z,55.86
2019-02-21T06:11:09.408Z,54.86
2019-02-21T06:15:18.308Z,55.21
2019-02-21T06:19:28.647Z,53.12
2019-02-21T06:23:39.489Z,55.37
2019-02-21T06:27:46.946Z,54.95
2019-02-21T06:31:54.397Z,57.85
2019-02-21T06:36:00.104Z,56.01
2019-02-21T06:40:07.809Z,54.36
2019-02-21T06:44:13.508Z,56.61
2019-02-21T06:48:22.893Z,56.36
2019-02-21T06:52:28.589Z,53.88
2019-02-21T06:56:34.263Z,53.55
2019-02-21T07:00:39.958Z,53.54
2019-02-21T07:04:45.728Z,54.97
2019-02-21T07:08:51.416Z,55.88
2019-02-21T07:12:57.102Z,55.67
2019-02-21T07:17:02.788Z,53.80
2019-02-21T07:21:08.549Z,55.19
2019-02-21T07:25:33.656Z,53.79
2019-02-21T07:29:39.345Z,52.73
2019-02-21T07:33:45.058Z,52.73
2019-02-21T15:15:27.802Z,40.33
2019-02-21T15:19:33.558Z,40.77
2019-02-21T15:23:39.332Z,40.34
2019-02-21T15:27:45.038Z,41.08
2019-02-21T15:31:50.851Z,40.98
2019-02-21T15:35:56.586Z,41.37
2019-02-21T15:40:02.275Z,40.95
2019-02-21T15:44:08.043Z,40.67
2019-02-21T15:48:13.765Z,41.08
2019-02-21T15:52:22.560Z,41.05
2019-02-21T15:56:26.916Z,41.65
2019-02-21T16:00:32.627Z,41.64
2019-02-21T16:04:38.337Z,41.52
2019-02-21T16:08:44.041Z,41.52
2019-02-21T16:12:50.735Z,42.33
2019-02-21T16:16:56.841Z,42.71
2019-02-21T16:21:02.549Z,43.09
2019-02-21T16:25:17.888Z,42.66
2019-02-21T16:29:25.841Z,42.17
2019-02-21T16:33:31.011Z,42.79
2019-02-21T16:37:36.688Z,42.84
2019-02-21T16:41:44.252Z,42.96
2019-02-21T16:45:53.941Z,43.21
2019-02-21T16:49:58.566Z,43.60
2019-02-21T16:54:04.274Z,43.86
2019-02-21T16:58:11.009Z,44.06
2019-02-21T17:08:15.534Z,44.71
2019-02-21T17:12:21.234Z,45.17
2019-02-21T17:17:17.843Z,45.76
2019-02-21T17:21:23.613Z,46.40
2019-02-21T17:26:17.260Z,46.65
2019-02-21T17:30:23.002Z,46.56
2019-02-21T17:35:16.909Z,45.96
2019-02-21T17:39:24.224Z,46.24
2019-02-21T17:43:29.924Z,46.25
2019-02-21T17:47:35.657Z,46.30
2019-02-21T17:51:42.615Z,46.44
2019-02-21T17:56:18.102Z,46.33
2019-02-21T18:00:28.822Z,45.94
2019-02-21T18:04:34.534Z,46.35
2019-02-21T18:08:40.244Z,46.11
2019-02-21T18:13:19.171Z,45.55
2019-02-21T18:17:26.533Z,45.31
2019-02-21T18:21:32.350Z,45.61
2019-02-21T18:26:17.220Z,45.21
2019-02-21T18:35:28.526Z,44.47
2019-02-21T18:39:34.227Z,45.38
2019-02-21T18:43:40.014Z,45.59
2019-02-21T18:47:45.696Z,45.72
2019-02-21T18:51:51.405Z,45.25
2019-02-21T18:55:57.158Z,45.74
2019-02-21T19:00:03.213Z,45.33
2019-02-21T19:04:10.615Z,44.07
2019-02-21T19:08:20.005Z,43.91
2019-02-21T19:12:25.726Z,46.55
2019-02-21T19:16:32.084Z,44.89
2019-02-21T19:20:37.858Z,45.89
2019-02-21T19:24:43.613Z,45.74
2019-02-21T19:28:49.487Z,44.97
2019-02-21T19:32:55.328Z,45.93
2019-02-21T19:37:01.164Z,45.97
2019-02-21T19:41:19.066Z,45.83
2019-02-21T19:45:26.413Z,45.45
2019-02-21T19:49:32.184Z,45.46
2019-02-21T19:53:37.919Z,45.63
2019-02-21T19:57:43.772Z,45.61
2019-02-21T20:01:50.542Z,46.39
2019-02-21T20:05:56.435Z,45.61
2019-02-21T20:10:02.359Z,45.49
2019-02-21T20:14:09.810Z,47.21
2019-02-21T20:18:24.282Z,45.67
2019-02-21T20:22:31.655Z,46.99
2019-02-21T20:26:37.393Z,46.58
2019-02-21T20:30:43.171Z,47.00
2019-02-21T20:34:49.100Z,46.32
2019-02-21T20:38:54.804Z,46.12
2019-02-21T20:43:00.626Z,47.96
2019-02-21T20:47:16.335Z,47.97
2019-02-21T20:51:22.036Z,45.97
2019-02-21T20:55:27.724Z,46.33
2019-02-21T20:59:33.431Z,47.19
2019-02-21T21:03:39.153Z,46.98
2019-02-21T21:07:44.966Z,47.32
2019-02-21T21:11:50.658Z,45.53
2019-02-21T21:15:56.361Z,46.67
2019-02-21T21:20:02.162Z,47.06
2019-02-21T21:24:18.538Z,45.93
2019-02-21T21:34:20.578Z,47.59
2019-02-21T21:43:20.412Z,47.58
2019-02-21T21:47:26.121Z,46.34
2019-02-21T21:51:33.965Z,46.06
2019-02-21T21:55:39.361Z,45.56
2019-02-21T21:59:45.042Z,46.44
2019-02-21T22:03:50.755Z,45.18
2019-02-21T22:07:56.504Z,44.98
2019-02-21T22:12:02.467Z,45.05
2019-02-21T22:16:08.156Z,45.71
2019-02-21T22:20:14.105Z,45.25
2019-02-21T22:24:19.803Z,45.79
2019-02-21T22:28:26.423Z,45.52
2019-02-21T22:32:33.096Z,45.36
2019-02-21T22:36:38.823Z,45.08
2019-02-21T22:40:44.546Z,45.24
2019-02-21T22:44:50.254Z,45.59
2019-02-21T22:48:55.962Z,46.13
2019-02-21T22:53:01.747Z,46.84
2019-02-21T22:57:07.434Z,46.17
2019-02-21T23:01:23.551Z,45.86
2019-02-21T23:05:56.760Z,46.66
2019-02-21T23:10:02.594Z,46.91
2019-02-21T23:14:12.154Z,45.93
2019-02-21T23:18:17.518Z,46.15
2019-02-21T23:22:23.213Z,46.57
2019-02-21T23:26:28.942Z,46.81
2019-02-21T23:30:35.718Z,46.84
2019-02-21T23:34:42.610Z,46.34
2019-02-21T23:38:48.358Z,46.65
2019-02-21T23:42:54.152Z,46.69
2019-02-21T23:47:00.093Z,46.67
2019-02-21T23:51:05.924Z,46.90
2019-02-21T23:55:11.674Z,46.87
2019-02-21T23:59:17.371Z,46.86
